createdAt,value
2023-05-16T00:01:57.935Z,3.55
2023-05-16T00:04:26.583Z,3.40
2023-05-16T00:06:53.569Z,3.35
2023-05-16T00:09:21.050Z,5.63
2023-05-16T00:11:48.461Z,3.33
2023-05-16T00:14:15.307Z,2.78
2023-05-16T00:16:42.044Z,3.83
2023-05-16T00:19:09.075Z,3.38
2023-05-16T00:21:35.593Z,4.27
2023-05-16T00:24:02.441Z,3.47
2023-05-16T00:26:28.909Z,3.08
2023-05-16T00:28:55.353Z,3.25
2023-05-16T00:31:22.359Z,3.03
2023-05-16T00:33:48.890Z,2.53
2023-05-16T00:36:15.389Z,2.53
2023-05-16T00:38:42.252Z,4.03
2023-05-16T00:41:09.298Z,2.70
2023-05-16T00:43:35.940Z,3.35
2023-05-16T00:46:02.629Z,3.37
2023-05-16T00:48:29.258Z,2.70
2023-05-16T00:50:56.213Z,4.00
2023-05-16T00:53:24.341Z,3.58
2023-05-16T00:55:51.948Z,3.97
2023-05-16T00:58:18.984Z,2.47
2023-05-16T01:00:48.720Z,4.20
2023-05-16T01:03:15.566Z,3.65
2023-05-16T01:05:42.173Z,4.38
2023-05-16T01:08:08.753Z,3.35
2023-05-16T01:10:50.097Z,3.43
2023-05-16T01:13:27.735Z,3.72
2023-05-16T01:16:00.468Z,3.78
2023-05-16T01:18:31.002Z,4.35
2023-05-16T01:21:03.968Z,3.90
2023-05-16T01:23:49.293Z,4.13
2023-05-16T01:26:23.437Z,4.32
2023-05-16T01:28:50.999Z,3.42
2023-05-16T01:31:17.711Z,3.47
2023-05-16T01:33:44.339Z,3.75
2023-05-16T01:36:29.326Z,3.73
2023-05-16T01:39:04.952Z,3.50
2023-05-16T01:41:35.574Z,4.65
2023-05-16T01:44:07.915Z,3.53
2023-05-16T01:46:42.888Z,3.03
2023-05-16T01:49:17.242Z,3.37
2023-05-16T01:51:46.546Z,3.17
2023-05-16T01:54:13.966Z,3.30
2023-05-16T01:56:47.014Z,3.30
2023-05-16T01:59:13.670Z,3.13
2023-05-16T02:01:40.337Z,3.23
2023-05-16T02:04:07.150Z,3.35
2023-05-16T02:06:33.710Z,2.72
2023-05-16T02:09:00.105Z,3.13
2023-05-16T02:11:26.985Z,2.97
2023-05-16T02:13:53.563Z,4.00
2023-05-16T02:16:20.070Z,4.57
2023-05-16T02:18:46.840Z,3.15
2023-05-16T02:21:13.268Z,2.92
2023-05-16T02:23:39.708Z,3.28
2023-05-16T02:26:06.433Z,3.10
2023-05-16T02:28:32.966Z,3.75
2023-05-16T02:31:02.317Z,3.03
2023-05-16T02:33:29.050Z,2.88
2023-05-16T02:35:55.966Z,3.00
2023-05-16T02:38:22.583Z,2.90
2023-05-16T02:40:49.182Z,3.60
2023-05-16T02:43:15.852Z,3.10
2023-05-16T02:45:42.559Z,4.35
2023-05-16T02:48:09.194Z,3.20
2023-05-16T02:50:36.159Z,3.57
2023-05-16T02:53:02.544Z,3.22
2023-05-16T02:55:29.314Z,3.72
2023-05-16T02:57:55.745Z,3.15
2023-05-16T03:00:22.631Z,3.42
2023-05-16T03:02:49.428Z,3.20
2023-05-16T03:05:16.351Z,3.53
2023-05-16T03:07:42.777Z,3.63
2023-05-16T03:10:09.426Z,3.75
2023-05-16T03:12:36.120Z,3.38
2023-05-16T03:15:02.778Z,3.37
2023-05-16T03:17:29.517Z,4.10
2023-05-16T03:19:56.086Z,3.30
2023-05-16T03:22:22.655Z,3.45
2023-05-16T03:24:49.247Z,4.25
2023-05-16T03:27:16.354Z,4.40
2023-05-16T03:29:42.916Z,2.95
2023-05-16T03:32:11.197Z,3.67
2023-05-16T03:34:37.827Z,4.55
2023-05-16T03:37:04.396Z,3.47
2023-05-16T03:39:30.781Z,3.33
2023-05-16T03:41:57.484Z,2.50
2023-05-16T03:44:24.128Z,3.80
2023-05-16T03:46:51.589Z,2.70
2023-05-16T03:49:18.568Z,4.00
2023-05-16T03:51:45.367Z,3.50
2023-05-16T03:54:11.856Z,3.53
2023-05-16T03:56:38.306Z,3.40
2023-05-16T03:59:04.844Z,3.13
2023-05-16T04:01:31.414Z,3.92
2023-05-16T04:03:57.849Z,2.80
2023-05-16T04:06:24.287Z,3.72
2023-05-16T04:08:50.751Z,3.28
2023-05-16T04:11:17.192Z,2.70
2023-05-16T04:13:43.860Z,3.72
2023-05-16T04:16:10.459Z,2.90
2023-05-16T04:18:36.900Z,3.65
2023-05-16T04:21:03.813Z,3.15
2023-05-16T04:23:30.440Z,3.08
2023-05-16T04:25:57.072Z,3.03
2023-05-16T04:28:23.672Z,3.43
2023-05-16T04:30:50.523Z,3.50
2023-05-16T04:33:17.035Z,3.10
2023-05-16T04:35:43.538Z,3.30
2023-05-16T04:38:09.973Z,3.00
2023-05-16T04:40:36.530Z,2.93
2023-05-16T04:43:03.051Z,3.83
2023-05-16T04:45:29.790Z,3.55
2023-05-16T04:47:56.831Z,3.40
2023-05-16T04:50:23.747Z,3.40
2023-05-16T04:52:50.317Z,3.00
2023-05-16T04:55:16.711Z,3.28
2023-05-16T04:57:43.297Z,3.47
2023-05-16T05:00:12.005Z,3.00
2023-05-16T05:02:38.597Z,3.47
2023-05-16T05:05:06.276Z,3.10
2023-05-16T05:07:33.104Z,3.35
2023-05-16T05:09:59.739Z,3.75
2023-05-16T05:12:27.835Z,3.35
2023-05-16T05:14:54.390Z,4.60
2023-05-16T05:17:21.744Z,3.67
2023-05-16T05:19:51.323Z,3.28
2023-05-16T05:22:18.126Z,3.60
2023-05-16T05:24:44.634Z,2.83
2023-05-16T05:27:11.268Z,3.13
2023-05-16T05:29:37.850Z,4.57
2023-05-16T05:32:04.678Z,3.25
2023-05-16T05:34:31.518Z,3.75
2023-05-16T05:36:58.048Z,2.63
2023-05-16T05:39:24.574Z,4.75
2023-05-16T05:41:51.196Z,3.10
2023-05-16T05:44:17.715Z,3.10
2023-05-16T05:46:44.271Z,4.20
2023-05-16T05:49:10.905Z,4.45
2023-05-16T05:51:37.574Z,3.35
2023-05-16T05:54:04.172Z,3.37
2023-05-16T05:56:30.681Z,3.40
2023-05-16T05:58:57.239Z,3.13
2023-05-16T06:01:24.555Z,3.20
2023-05-16T06:03:51.799Z,4.00
2023-05-16T06:06:18.242Z,3.93
2023-05-16T06:08:44.723Z,3.80
2023-05-16T06:11:11.403Z,3.38
2023-05-16T06:13:38.043Z,3.83
2023-05-16T06:16:04.630Z,3.80
2023-05-16T06:18:31.177Z,3.83
2023-05-16T06:20:57.629Z,2.78
2023-05-16T06:23:24.148Z,3.20
2023-05-16T06:25:50.918Z,3.83
2023-05-16T06:28:17.441Z,3.08
2023-05-16T06:30:43.859Z,4.67
2023-05-16T06:33:10.483Z,5.00
2023-05-16T06:35:37.047Z,3.28
2023-05-16T06:38:03.563Z,4.18
2023-05-16T06:40:30.268Z,3.33
2023-05-16T06:42:58.503Z,2.77
2023-05-16T06:45:25.276Z,2.90
2023-05-16T06:47:52.105Z,3.55
2023-05-16T06:50:19.966Z,3.47
2023-05-16T06:52:46.555Z,3.58
2023-05-16T06:55:13.144Z,3.60
2023-05-16T06:57:39.713Z,4.38
2023-05-16T07:00:07.031Z,4.28
2023-05-16T07:02:33.651Z,3.42
2023-05-16T07:05:00.296Z,3.90
2023-05-16T07:07:26.962Z,3.33
2023-05-16T07:09:53.513Z,4.18
2023-05-16T07:12:20.940Z,4.38
2023-05-16T07:14:47.771Z,3.85
2023-05-16T07:17:14.454Z,3.75
2023-05-16T07:19:40.896Z,4.70
2023-05-16T07:22:07.454Z,3.63
2023-05-16T07:24:34.352Z,4.85
2023-05-16T07:27:00.792Z,4.47
2023-05-16T07:29:27.361Z,5.47
2023-05-16T07:31:54.298Z,5.20
2023-05-16T07:34:21.086Z,6.80
2023-05-16T07:36:47.663Z,6.38
2023-05-16T07:39:14.874Z,5.50
2023-05-16T07:41:41.490Z,6.07
2023-05-16T07:44:08.141Z,8.77
2023-05-16T07:46:34.780Z,5.95
2023-05-16T07:49:01.501Z,3.92
2023-05-16T07:51:28.912Z,4.45
2023-05-16T07:53:55.524Z,4.78
2023-05-16T07:56:22.772Z,5.70
2023-05-16T07:58:49.360Z,7.00
2023-05-16T08:01:15.902Z,10.25
2023-05-16T08:03:42.496Z,8.38
2023-05-16T08:06:09.337Z,10.32
2023-05-16T08:08:36.077Z,8.60
2023-05-16T08:11:02.614Z,17.45
2023-05-16T08:13:29.232Z,10.70
2023-05-16T08:15:55.909Z,12.15
2023-05-16T08:18:22.956Z,11.55
2023-05-16T08:20:49.750Z,11.30
2023-05-16T08:23:16.473Z,12.25
2023-05-16T08:25:44.801Z,11.55
2023-05-16T08:28:11.293Z,9.98
2023-05-16T08:30:38.949Z,10.88
2023-05-16T08:33:06.983Z,10.80
2023-05-16T08:35:35.511Z,12.80
2023-05-16T08:38:03.206Z,10.65
2023-05-16T08:40:29.728Z,11.10
2023-05-16T08:42:56.300Z,11.30
2023-05-16T08:45:23.721Z,9.30
2023-05-16T08:47:51.472Z,9.68
2023-05-16T08:50:18.104Z,11.25
2023-05-16T08:52:46.431Z,12.48
2023-05-16T08:55:13.959Z,10.40
2023-05-16T08:57:41.077Z,10.43
2023-05-16T09:00:12.096Z,10.73
2023-05-16T09:02:42.436Z,25.05
2023-05-16T09:05:10.131Z,10.27
2023-05-16T09:07:36.971Z,11.63
2023-05-16T09:10:03.581Z,10.67
2023-05-16T09:12:30.038Z,9.95
2023-05-16T09:14:56.653Z,12.93
2023-05-16T09:17:35.974Z,12.52
2023-05-16T09:20:09.382Z,15.15
2023-05-16T09:22:36.021Z,12.20
2023-05-16T09:25:02.482Z,13.10
2023-05-16T09:27:30.749Z,15.82
2023-05-16T09:29:58.228Z,13.13
2023-05-16T09:32:25.219Z,14.73
2023-05-16T09:34:52.942Z,14.20
2023-05-16T09:37:19.891Z,38.15
2023-05-16T09:39:50.621Z,37.20
2023-05-16T09:42:18.155Z,16.50
2023-05-16T09:44:49.017Z,16.15
2023-05-16T09:47:16.906Z,15.53
2023-05-16T09:49:46.698Z,21.38
2023-05-16T09:52:13.677Z,14.55
2023-05-16T09:54:40.671Z,15.75
2023-05-16T09:57:07.222Z,16.52
2023-05-16T09:59:39.999Z,15.70
2023-05-16T10:02:09.998Z,13.80
2023-05-16T10:04:36.738Z,15.15
2023-05-16T10:07:04.512Z,15.45
2023-05-16T10:09:34.212Z,16.75
2023-05-16T10:12:04.151Z,15.00
2023-05-16T10:14:33.992Z,14.85
2023-05-16T10:17:01.177Z,14.45
2023-05-16T10:19:30.323Z,13.80
2023-05-16T10:22:01.020Z,14.18
2023-05-16T10:24:31.479Z,14.83
2023-05-16T10:26:58.069Z,15.60
2023-05-16T10:29:24.912Z,18.42
2023-05-16T10:31:53.681Z,15.07
2023-05-16T10:34:20.760Z,14.32
2023-05-16T10:36:47.747Z,15.03
2023-05-16T10:39:15.451Z,16.15
2023-05-16T10:41:42.546Z,15.63
2023-05-16T10:44:13.598Z,15.93
2023-05-16T10:46:40.379Z,14.23
2023-05-16T10:49:20.305Z,19.90
2023-05-16T10:51:46.829Z,14.85
2023-05-16T10:54:15.112Z,12.90
2023-05-16T10:56:43.420Z,13.57
2023-05-16T10:59:24.206Z,14.77
2023-05-16T11:01:54.364Z,14.17
2023-05-16T11:04:21.196Z,14.32
2023-05-16T11:06:52.839Z,13.35
2023-05-16T11:09:22.375Z,13.32
2023-05-16T11:11:52.119Z,15.13
2023-05-16T11:14:29.388Z,14.30
2023-05-16T11:17:03.164Z,13.90
2023-05-16T11:19:31.475Z,18.05
2023-05-16T11:22:10.256Z,13.88
2023-05-16T11:24:38.266Z,14.82
2023-05-16T11:27:05.161Z,14.40
2023-05-16T11:29:33.441Z,13.85
2023-05-16T11:32:01.146Z,14.70
2023-05-16T11:34:27.980Z,15.43
2023-05-16T11:36:55.100Z,17.73
2023-05-16T11:39:22.058Z,22.23
2023-05-16T11:41:48.994Z,13.88
2023-05-16T11:44:15.642Z,13.90
2023-05-16T11:46:42.501Z,15.18
2023-05-16T11:49:12.622Z,15.82
2023-05-16T11:51:43.433Z,14.30
2023-05-16T11:54:10.267Z,12.77
2023-05-16T11:56:37.318Z,14.20
2023-05-16T11:59:03.939Z,15.88
2023-05-16T12:01:34.176Z,29.67
2023-05-16T12:04:00.753Z,14.73
2023-05-16T12:06:27.516Z,14.68
2023-05-16T12:08:54.152Z,14.32
2023-05-16T12:11:21.868Z,13.27
2023-05-16T12:13:48.624Z,13.70
2023-05-16T12:16:15.191Z,13.33
2023-05-16T12:18:43.498Z,14.90
2023-05-16T12:21:10.490Z,15.52
2023-05-16T12:23:37.129Z,13.85
2023-05-16T12:26:07.948Z,16.17
2023-05-16T12:28:35.581Z,12.87
2023-05-16T12:31:02.243Z,14.70
2023-05-16T12:33:28.860Z,14.30
2023-05-16T12:35:55.922Z,14.52
2023-05-16T12:38:22.743Z,17.90
2023-05-16T12:40:49.192Z,15.27
2023-05-16T12:43:15.703Z,13.15
2023-05-16T12:45:43.402Z,15.60
2023-05-16T12:48:14.225Z,15.43
2023-05-16T12:50:41.882Z,15.55
2023-05-16T12:53:13.415Z,14.73
2023-05-16T12:55:40.052Z,16.27
2023-05-16T12:58:06.663Z,16.90
2023-05-16T13:00:33.201Z,18.00
2023-05-16T13:02:59.896Z,15.38
2023-05-16T13:05:26.706Z,13.73
2023-05-16T13:07:53.403Z,14.05
2023-05-16T13:10:20.028Z,14.55
2023-05-16T13:12:47.396Z,14.80
2023-05-16T13:15:14.679Z,16.02
2023-05-16T13:17:44.052Z,16.07
2023-05-16T13:20:14.717Z,14.38
2023-05-16T13:22:41.764Z,17.40
2023-05-16T13:25:08.934Z,15.63
2023-05-16T13:27:35.911Z,14.82
2023-05-16T13:30:04.356Z,14.70
2023-05-16T13:32:30.946Z,15.70
2023-05-16T13:34:57.561Z,17.58
2023-05-16T13:37:26.959Z,16.10
2023-05-16T13:39:56.205Z,16.67
2023-05-16T13:42:22.655Z,14.17
2023-05-16T13:44:49.216Z,14.15
2023-05-16T13:47:15.810Z,19.00
2023-05-16T13:49:42.327Z,14.93
2023-05-16T13:52:08.927Z,17.70
2023-05-16T13:54:35.890Z,18.67
2023-05-16T13:57:03.659Z,16.88
2023-05-16T13:59:56.342Z,14.45
2023-05-16T14:02:08.808Z,15.68
2023-05-16T14:04:36.255Z,15.63
2023-05-16T14:07:03.350Z,17.60
2023-05-16T14:09:30.081Z,16.05
2023-05-16T14:11:56.928Z,15.15
2023-05-16T14:14:23.818Z,17.23
2023-05-16T14:16:50.955Z,15.65
2023-05-16T14:19:19.424Z,14.50
2023-05-16T14:21:46.602Z,16.90
2023-05-16T14:24:15.128Z,16.33
2023-05-16T14:26:43.189Z,15.07
2023-05-16T14:29:09.928Z,15.95
2023-05-16T14:31:39.064Z,15.97
2023-05-16T14:34:05.958Z,15.55
2023-05-16T14:36:34.369Z,15.98
2023-05-16T14:39:02.497Z,14.82
2023-05-16T14:41:29.127Z,18.20
2023-05-16T14:43:56.280Z,13.70
2023-05-16T14:46:23.315Z,14.85
2023-05-16T14:48:49.924Z,16.73
2023-05-16T14:51:16.798Z,15.90
2023-05-16T14:53:46.068Z,15.27
2023-05-16T14:56:13.482Z,14.93
2023-05-16T14:58:40.324Z,13.75
2023-05-16T15:01:07.030Z,15.13
2023-05-16T15:03:43.229Z,14.98
2023-05-16T15:06:17.826Z,14.95
2023-05-16T15:08:46.466Z,17.40
2023-05-16T15:11:13.399Z,14.05
2023-05-16T15:13:40.242Z,16.70
2023-05-16T15:16:07.950Z,15.48
2023-05-16T15:18:34.750Z,17.33
2023-05-16T15:21:01.610Z,15.20
2023-05-16T15:23:28.921Z,17.30
2023-05-16T15:25:55.570Z,15.20
2023-05-16T15:28:22.834Z,17.98
2023-05-16T15:30:49.932Z,16.02
2023-05-16T15:33:20.154Z,16.93
2023-05-16T15:35:46.905Z,17.85
2023-05-16T15:38:13.432Z,17.13
2023-05-16T15:40:40.143Z,13.90
2023-05-16T15:43:07.256Z,14.75
2023-05-16T15:45:36.716Z,15.47
2023-05-16T15:48:04.590Z,15.57
2023-05-16T15:50:32.097Z,14.73
2023-05-16T15:52:58.927Z,16.05
2023-05-16T15:55:25.751Z,14.88
2023-05-16T15:57:53.937Z,13.20
2023-05-16T16:00:22.996Z,13.73
2023-05-16T16:02:49.873Z,14.30
2023-05-16T16:05:16.901Z,13.82
2023-05-16T16:07:43.946Z,13.35
2023-05-16T16:10:12.976Z,12.73
2023-05-16T16:12:41.194Z,13.57
2023-05-16T16:15:09.704Z,14.57
2023-05-16T16:17:36.470Z,14.52
2023-05-16T16:20:03.608Z,12.55
2023-05-16T16:22:30.231Z,12.67
2023-05-16T16:24:56.893Z,12.35
2023-05-16T16:27:24.746Z,18.15
2023-05-16T16:29:51.600Z,9.98
2023-05-16T16:32:18.247Z,11.48
2023-05-16T16:34:46.003Z,11.07
2023-05-16T16:37:13.005Z,11.65
2023-05-16T16:39:40.110Z,10.02
2023-05-16T16:42:08.517Z,9.73
2023-05-16T16:44:35.519Z,11.05
2023-05-16T16:47:02.396Z,8.40
2023-05-16T16:49:29.665Z,10.10
2023-05-16T16:51:56.318Z,7.85
2023-05-16T16:54:23.925Z,7.53
2023-05-16T16:56:50.742Z,8.00
2023-05-16T16:59:17.392Z,32.93
2023-05-16T17:01:44.715Z,7.80
2023-05-16T17:04:12.249Z,9.35
2023-05-16T17:06:39.231Z,8.90
2023-05-16T17:09:14.057Z,8.95
2023-05-16T17:11:41.131Z,8.80
2023-05-16T17:14:10.851Z,6.85
2023-05-16T17:16:38.298Z,7.82
2023-05-16T17:19:05.544Z,7.53
2023-05-16T17:21:34.741Z,8.55
2023-05-16T17:24:01.632Z,6.60
2023-05-16T17:26:30.180Z,7.00
2023-05-16T17:29:00.280Z,6.30
2023-05-16T17:31:27.399Z,6.72
2023-05-16T17:33:54.442Z,6.90
2023-05-16T17:36:21.602Z,6.00
2023-05-16T17:38:48.896Z,6.10
2023-05-16T17:41:16.111Z,6.50
2023-05-16T17:43:45.605Z,6.70
2023-05-16T17:46:12.830Z,7.03
2023-05-16T17:48:40.558Z,5.80
2023-05-16T17:51:07.425Z,8.98
2023-05-16T17:53:37.697Z,8.23
2023-05-16T17:56:06.203Z,7.30
2023-05-16T17:58:33.230Z,7.70
2023-05-16T18:01:00.382Z,7.30
2023-05-16T18:03:27.270Z,6.55
2023-05-16T18:05:54.695Z,6.20
2023-05-16T18:08:21.450Z,6.95
2023-05-16T18:10:52.002Z,6.85
2023-05-16T18:13:18.962Z,10.47
2023-05-16T18:15:45.612Z,6.15
2023-05-16T18:18:12.849Z,5.72
2023-05-16T18:20:39.804Z,5.78
2023-05-16T18:23:06.845Z,5.80
2023-05-16T18:25:33.893Z,5.80
2023-05-16T18:28:00.710Z,4.75
2023-05-16T18:30:28.487Z,5.32
2023-05-16T18:32:55.091Z,4.75
2023-05-16T18:35:21.614Z,5.43
2023-05-16T18:37:48.202Z,4.93
2023-05-16T18:40:15.019Z,6.05
2023-05-16T18:42:41.555Z,5.22
2023-05-16T18:45:09.238Z,4.88
2023-05-16T18:47:36.488Z,5.40
2023-05-16T18:50:04.750Z,5.23
2023-05-16T18:52:32.458Z,4.63
2023-05-16T18:55:01.270Z,5.55
2023-05-16T18:57:28.183Z,4.80
2023-05-16T18:59:56.578Z,4.05
2023-05-16T19:02:34.008Z,4.13
2023-05-16T19:05:08.225Z,4.78
2023-05-16T19:07:35.305Z,4.07
2023-05-16T19:10:03.812Z,4.00
2023-05-16T19:12:31.053Z,4.45
2023-05-16T19:14:58.279Z,4.03
2023-05-16T19:17:27.337Z,3.70
2023-05-16T19:19:57.409Z,4.00
2023-05-16T19:22:24.104Z,4.05
2023-05-16T19:24:51.692Z,4.60
2023-05-16T19:27:18.782Z,4.50
2023-05-16T19:29:45.399Z,3.40
2023-05-16T19:32:12.791Z,4.03
2023-05-16T19:34:39.384Z,3.90
2023-05-16T19:37:06.015Z,4.65
2023-05-16T19:39:33.164Z,4.20
2023-05-16T19:42:07.119Z,5.95
2023-05-16T19:44:34.444Z,3.80
2023-05-16T19:47:01.784Z,4.50
2023-05-16T19:49:28.940Z,5.03
2023-05-16T19:51:56.655Z,4.10
2023-05-16T19:54:23.273Z,4.13
2023-05-16T19:56:49.926Z,4.53
2023-05-16T19:59:17.877Z,4.30
2023-05-16T20:01:44.458Z,4.72
2023-05-16T20:04:12.572Z,3.50
2023-05-16T20:06:39.371Z,3.75
2023-05-16T20:09:06.903Z,3.42
2023-05-16T20:11:38.152Z,4.40
2023-05-16T20:14:04.704Z,3.85
2023-05-16T20:16:31.214Z,3.97
2023-05-16T20:18:58.296Z,3.30
2023-05-16T20:21:24.940Z,3.70
2023-05-16T20:23:51.547Z,4.38
2023-05-16T20:26:19.422Z,3.80
2023-05-16T20:28:46.277Z,3.83
2023-05-16T20:31:13.319Z,2.97
2023-05-16T20:33:40.055Z,3.72
2023-05-16T20:36:08.754Z,3.58
2023-05-16T20:38:37.547Z,4.07
2023-05-16T20:41:05.488Z,3.53
2023-05-16T20:43:33.317Z,3.97
2023-05-16T20:46:00.009Z,3.45
2023-05-16T20:48:26.636Z,3.58
2023-05-16T20:50:56.060Z,3.72
2023-05-16T20:53:23.007Z,3.17
2023-05-16T20:55:49.509Z,4.38
2023-05-16T20:58:16.508Z,3.50
2023-05-16T21:00:43.025Z,4.05
2023-05-16T21:03:12.379Z,3.97
2023-05-16T21:05:41.659Z,4.23
2023-05-16T21:08:08.324Z,3.63
2023-05-16T21:10:37.131Z,3.80
2023-05-16T21:13:03.999Z,3.50
2023-05-16T21:15:30.877Z,3.72
2023-05-16T21:17:57.551Z,3.67
2023-05-16T21:20:24.497Z,2.65
2023-05-16T21:22:52.611Z,4.10
2023-05-16T21:25:19.504Z,3.35
2023-05-16T21:27:46.311Z,3.65
2023-05-16T21:30:14.441Z,3.60
2023-05-16T21:32:41.679Z,3.67
2023-05-16T21:35:09.144Z,3.85
2023-05-16T21:37:36.677Z,3.30
2023-05-16T21:40:03.853Z,3.78
2023-05-16T21:42:30.400Z,3.80
2023-05-16T21:44:57.444Z,3.72
2023-05-16T21:47:27.094Z,3.53
2023-05-16T21:49:54.197Z,3.47
2023-05-16T21:52:20.895Z,4.53
2023-05-16T21:54:52.007Z,3.70
2023-05-16T21:57:19.554Z,3.58
2023-05-16T21:59:46.237Z,4.55
2023-05-16T22:02:12.857Z,3.58
2023-05-16T22:04:39.592Z,4.15
2023-05-16T22:07:06.222Z,4.07
2023-05-16T22:09:32.795Z,4.75
2023-05-16T22:11:59.415Z,4.00
2023-05-16T22:14:25.970Z,4.28
2023-05-16T22:16:52.487Z,4.70
2023-05-16T22:19:18.995Z,4.23
2023-05-16T22:21:45.740Z,4.07
2023-05-16T22:24:12.559Z,4.85
2023-05-16T22:26:39.276Z,4.18
2023-05-16T22:29:05.834Z,4.07
2023-05-16T22:31:32.358Z,4.07
2023-05-16T22:33:58.901Z,4.63
2023-05-16T22:36:26.774Z,5.35
2023-05-16T22:38:55.332Z,4.15
2023-05-16T22:41:22.761Z,4.30
2023-05-16T22:43:49.715Z,4.63
2023-05-16T22:46:16.743Z,4.05
2023-05-16T22:48:43.984Z,4.63
2023-05-16T22:51:11.076Z,5.70
2023-05-16T22:53:37.566Z,5.22
2023-05-16T22:56:04.243Z,3.93
2023-05-16T22:58:30.913Z,5.65
2023-05-16T23:00:58.165Z,4.70
2023-05-16T23:03:24.859Z,5.00
2023-05-16T23:05:51.405Z,4.82
2023-05-16T23:08:20.220Z,5.57
2023-05-16T23:10:46.888Z,5.13
2023-05-16T23:13:13.866Z,4.28
2023-05-16T23:15:40.461Z,4.22
2023-05-16T23:18:07.335Z,5.07
2023-05-16T23:20:34.086Z,4.93
2023-05-16T23:23:00.548Z,4.82
2023-05-16T23:25:27.308Z,5.80
2023-05-16T23:27:57.740Z,5.00
2023-05-16T23:30:24.669Z,5.68
2023-05-16T23:32:54.140Z,4.53
2023-05-16T23:35:22.163Z,5.53
2023-05-16T23:37:49.157Z,5.57
2023-05-16T23:40:16.164Z,5.13
2023-05-16T23:42:44.123Z,5.90
2023-05-16T23:45:10.838Z,5.30
2023-05-16T23:47:37.558Z,5.18
2023-05-16T23:50:04.407Z,5.85
2023-05-16T23:52:32.681Z,6.55
2023-05-16T23:54:59.715Z,5.60
2023-05-16T23:57:26.424Z,4.87
2023-05-16T23:59:53.934Z,6.03
